createdAt,value
2022-08-07T00:00:19.703Z,12.21
2022-08-07T00:03:05.390Z,12.13
2022-08-07T00:05:54.031Z,12.11
2022-08-07T00:08:44.393Z,12.06
2022-08-07T00:11:33.145Z,12.06
2022-08-07T00:14:19.218Z,12.03
2022-08-07T00:17:11.106Z,12.01
2022-08-07T00:20:01.274Z,12.01
2022-08-07T00:22:51.612Z,11.94
2022-08-07T00:25:41.453Z,11.94
2022-08-07T00:28:31.506Z,11.88
2022-08-07T00:31:18.813Z,11.84
2022-08-07T00:34:04.683Z,11.80
2022-08-07T00:36:54.542Z,11.77
2022-08-07T00:39:45.022Z,11.72
2022-08-07T00:42:33.298Z,11.68
2022-08-07T00:45:22.826Z,11.57
2022-08-07T00:48:11.209Z,11.55
2022-08-07T00:50:57.068Z,11.49
2022-08-07T00:53:50.155Z,11.46
2022-08-07T00:56:36.918Z,11.39
2022-08-07T00:59:32.404Z,11.30
2022-08-07T01:02:28.627Z,11.27
2022-08-07T01:05:19.014Z,11.24
2022-08-07T01:08:05.439Z,11.26
2022-08-07T01:10:56.490Z,11.25
2022-08-07T01:13:42.447Z,11.23
2022-08-07T01:16:43.100Z,11.18
2022-08-07T01:19:34.392Z,11.14
2022-08-07T01:22:29.504Z,11.05
2022-08-07T01:25:55.098Z,10.95
2022-08-07T01:28:22.850Z,10.86
2022-08-07T01:31:12.309Z,10.84
2022-08-07T01:34:02.645Z,10.78
2022-08-07T01:36:58.046Z,10.75
2022-08-07T01:39:48.032Z,10.78
2022-08-07T01:42:57.602Z,10.84
2022-08-07T01:45:48.586Z,10.87
2022-08-07T01:48:47.622Z,10.86
2022-08-07T01:52:01.573Z,10.85
2022-08-07T01:54:52.693Z,10.82
2022-08-07T01:58:01.173Z,10.78
2022-08-07T02:01:09.389Z,10.75
2022-08-07T02:04:14.221Z,10.78
2022-08-07T02:07:08.496Z,10.75
2022-08-07T02:09:58.568Z,10.69
2022-08-07T02:12:50.110Z,10.71
2022-08-07T02:15:43.222Z,10.71
2022-08-07T02:18:31.241Z,10.71
2022-08-07T02:21:17.546Z,10.72
2022-08-07T02:24:06.206Z,10.71
2022-08-07T02:26:55.580Z,10.71
2022-08-07T02:29:54.205Z,10.71
2022-08-07T02:33:00.944Z,10.70
2022-08-07T02:36:27.004Z,10.69
2022-08-07T02:39:00.530Z,10.68
2022-08-07T02:41:54.341Z,10.67
2022-08-07T02:44:47.835Z,10.64
2022-08-07T02:47:45.564Z,10.57
2022-08-07T02:50:47.708Z,10.61
2022-08-07T02:53:38.549Z,10.63
2022-08-07T02:56:31.344Z,10.57
2022-08-07T02:59:24.174Z,10.54
2022-08-07T03:02:18.236Z,10.56
2022-08-07T03:05:06.652Z,10.56
2022-08-07T03:08:06.964Z,10.54
2022-08-07T03:11:00.657Z,10.57
2022-08-07T03:13:57.640Z,10.59
2022-08-07T03:16:47.487Z,10.55
2022-08-07T03:19:37.112Z,10.50
2022-08-07T03:22:30.378Z,10.50
2022-08-07T03:25:21.115Z,10.55
2022-08-07T03:28:38.220Z,10.54
2022-08-07T03:31:24.368Z,10.53
2022-08-07T03:34:18.311Z,10.56
2022-08-07T03:37:12.152Z,10.47
2022-08-07T03:40:15.048Z,10.41
2022-08-07T03:43:03.135Z,10.36
2022-08-07T03:45:51.842Z,10.37
2022-08-07T03:48:45.521Z,10.32
2022-08-07T03:51:55.201Z,10.23
2022-08-07T03:54:55.062Z,10.13
2022-08-07T03:58:35.018Z,10.11
2022-08-07T04:01:00.304Z,10.04
2022-08-07T04:03:55.097Z,10.00
2022-08-07T04:06:44.410Z,9.89
2022-08-07T04:09:45.213Z,9.76
2022-08-07T04:12:39.996Z,9.68
2022-08-07T04:15:27.270Z,9.63
2022-08-07T04:18:57.490Z,9.63
2022-08-07T04:21:20.812Z,9.56
2022-08-07T04:24:30.609Z,9.63
2022-08-07T04:27:25.751Z,9.70
2022-08-07T04:30:35.500Z,9.66
2022-08-07T04:33:28.363Z,9.63
2022-08-07T04:36:15.243Z,9.68
2022-08-07T04:39:02.937Z,9.66
2022-08-07T04:41:50.432Z,9.61
2022-08-07T04:44:54.723Z,9.59
2022-08-07T04:48:21.142Z,9.51
2022-08-07T04:51:27.814Z,9.50
2022-08-07T04:54:36.865Z,9.55
2022-08-07T04:58:07.600Z,9.68
2022-08-07T05:01:01.852Z,9.73
2022-08-07T05:04:07.764Z,9.74
2022-08-07T05:07:21.031Z,9.70
2022-08-07T05:10:18.078Z,9.76
2022-08-07T05:14:55.213Z,9.76
2022-08-07T05:16:30.817Z,9.78
2022-08-07T05:19:25.722Z,9.85
2022-08-07T05:22:27.750Z,9.90
2022-08-07T05:25:25.630Z,9.97
2022-08-07T05:28:26.803Z,10.10
2022-08-07T05:31:17.618Z,10.14
2022-08-07T05:34:11.055Z,10.22
2022-08-07T05:37:00.413Z,10.32
2022-08-07T05:40:13.705Z,10.40
2022-08-07T05:43:06.731Z,10.66
2022-08-07T05:45:58.496Z,10.81
2022-08-07T05:48:59.283Z,10.80
2022-08-07T05:51:50.011Z,10.83
2022-08-07T05:54:53.794Z,10.88
2022-08-07T05:57:44.918Z,10.94
2022-08-07T06:00:35.226Z,10.99
2022-08-07T06:03:24.301Z,11.04
2022-08-07T06:06:17.503Z,11.12
2022-08-07T06:09:07.277Z,11.23
2022-08-07T06:11:59.168Z,11.27
2022-08-07T06:14:49.577Z,11.29
2022-08-07T06:17:38.322Z,11.39
2022-08-07T06:20:49.733Z,11.47
2022-08-07T06:24:37.268Z,11.56
2022-08-07T06:26:41.748Z,11.62
2022-08-07T06:29:30.005Z,11.70
2022-08-07T06:32:15.668Z,11.74
2022-08-07T06:35:17.615Z,11.81
2022-08-07T06:38:05.243Z,11.92
2022-08-07T06:40:55.807Z,12.00
2022-08-07T06:43:46.597Z,12.08
2022-08-07T06:46:53.329Z,12.19
2022-08-07T06:49:51.807Z,12.29
2022-08-07T06:52:53.128Z,12.38
2022-08-07T06:55:53.832Z,12.47
2022-08-07T07:00:12.384Z,12.55
2022-08-07T07:02:01.252Z,12.62
2022-08-07T07:04:54.754Z,12.67
2022-08-07T07:08:00.149Z,12.78
2022-08-07T07:10:56.889Z,12.85
2022-08-07T07:13:58.528Z,12.93
2022-08-07T07:16:53.463Z,13.05
2022-08-07T07:19:57.481Z,13.18
2022-08-07T07:24:05.460Z,13.23
2022-08-07T07:26:32.154Z,13.28
2022-08-07T07:29:56.652Z,13.33
2022-08-07T07:32:33.993Z,13.43
2022-08-07T07:35:20.162Z,13.44
2022-08-07T07:38:11.445Z,13.51
2022-08-07T07:41:02.683Z,13.59
2022-08-07T07:44:17.558Z,13.61
2022-08-07T07:47:12.301Z,13.68
2022-08-07T07:50:33.065Z,13.72
2022-08-07T07:53:13.565Z,13.79
2022-08-07T07:56:08.895Z,13.90
2022-08-07T07:58:56.225Z,13.98
2022-08-07T08:02:03.776Z,14.05
2022-08-07T08:04:51.746Z,14.09
2022-08-07T08:07:59.703Z,14.10
2022-08-07T08:10:47.913Z,14.19
2022-08-07T08:13:50.786Z,14.25
2022-08-07T08:16:50.272Z,14.30
2022-08-07T08:20:18.117Z,14.34
2022-08-07T08:23:04.848Z,14.38
2022-08-07T08:26:34.679Z,14.41
2022-08-07T08:29:22.132Z,14.47
2022-08-07T08:32:18.870Z,14.55
2022-08-07T08:35:15.570Z,14.62
2022-08-07T08:38:05.393Z,14.67
2022-08-07T08:40:58.084Z,14.73
2022-08-07T08:43:55.830Z,14.81
2022-08-07T08:46:49.297Z,14.96
2022-08-07T08:50:04.757Z,15.04
2022-08-07T08:53:29.737Z,15.12
2022-08-07T08:56:24.666Z,15.19
2022-08-07T08:59:48.098Z,15.28
2022-08-07T09:02:52.820Z,15.32
2022-08-07T09:05:48.393Z,15.36
2022-08-07T09:08:55.492Z,15.40
2022-08-07T09:12:08.992Z,15.50
2022-08-07T09:16:25.527Z,15.62
2022-08-07T09:18:15.790Z,15.65
2022-08-07T09:21:57.849Z,15.71
2022-08-07T09:25:00.636Z,15.91
2022-08-07T09:28:05.027Z,16.10
2022-08-07T09:31:20.660Z,16.41
2022-08-07T09:34:18.378Z,16.56
2022-08-07T09:37:18.383Z,16.51
2022-08-07T09:40:05.426Z,16.42
2022-08-07T09:43:18.644Z,16.36
2022-08-07T09:47:51.238Z,16.47
2022-08-07T09:50:00.802Z,16.60
2022-08-07T09:52:58.384Z,16.78
2022-08-07T09:56:33.809Z,16.84
2022-08-07T10:00:01.284Z,16.93
2022-08-07T10:04:03.947Z,17.07
2022-08-07T10:06:25.379Z,17.10
2022-08-07T10:09:16.067Z,17.13
2022-08-07T10:12:26.425Z,17.25
2022-08-07T10:15:29.289Z,17.41
2022-08-07T10:18:26.290Z,17.26
2022-08-07T10:22:12.592Z,17.24
2022-08-07T10:25:21.176Z,17.35
2022-08-07T10:28:57.892Z,17.47
2022-08-07T10:32:51.480Z,17.57
2022-08-07T10:35:55.381Z,17.63
2022-08-07T10:38:54.847Z,17.83
2022-08-07T10:42:00.234Z,17.90
2022-08-07T10:45:02.630Z,17.93
2022-08-07T10:48:17.706Z,17.95
2022-08-07T10:51:16.929Z,18.13
2022-08-07T10:54:29.486Z,18.26
2022-08-07T10:58:04.441Z,18.29
2022-08-07T11:01:11.357Z,18.33
2022-08-07T11:04:23.388Z,18.32
2022-08-07T11:07:59.645Z,18.30
2022-08-07T11:10:52.285Z,18.39
2022-08-07T11:14:44.915Z,18.72
2022-08-07T11:17:23.525Z,19.08
2022-08-07T11:20:41.568Z,19.27
2022-08-07T11:24:00.886Z,19.56
2022-08-07T11:26:54.059Z,19.67
2022-08-07T11:30:10.030Z,19.49
2022-08-07T11:33:19.317Z,19.30
2022-08-07T11:36:53.259Z,19.31
2022-08-07T11:39:59.927Z,19.69
2022-08-07T11:42:47.003Z,20.12
2022-08-07T11:45:59.870Z,20.37
2022-08-07T11:49:51.088Z,20.62
2022-08-07T11:52:04.588Z,20.50
2022-08-07T11:56:08.516Z,20.48
2022-08-07T11:58:36.504Z,20.56
2022-08-07T12:02:00.670Z,20.77
2022-08-07T12:04:56.840Z,21.10
2022-08-07T12:07:53.788Z,21.16
2022-08-07T12:11:22.575Z,21.08
2022-08-07T12:14:18.954Z,20.42
2022-08-07T12:17:19.996Z,20.69
2022-08-07T12:20:30.920Z,21.25
2022-08-07T12:24:05.273Z,21.33
2022-08-07T12:26:51.209Z,21.59
2022-08-07T12:29:54.184Z,21.17
2022-08-07T12:32:48.318Z,20.91
2022-08-07T12:35:36.457Z,20.60
2022-08-07T12:38:39.151Z,20.65
2022-08-07T12:41:46.251Z,21.20
2022-08-07T12:44:38.713Z,21.63
2022-08-07T12:47:32.068Z,22.05
2022-08-07T12:50:33.912Z,22.33
2022-08-07T12:54:02.876Z,22.52
2022-08-07T12:57:02.608Z,23.12
2022-08-07T12:59:57.096Z,23.71
2022-08-07T13:02:49.448Z,24.10
2022-08-07T13:06:17.049Z,23.20
2022-08-07T13:10:28.443Z,21.99
2022-08-07T13:13:07.913Z,22.16
2022-08-07T13:16:10.788Z,22.43
2022-08-07T13:19:21.849Z,22.93
2022-08-07T13:22:30.183Z,23.73
2022-08-07T13:25:31.917Z,23.76
2022-08-07T13:28:25.177Z,23.82
2022-08-07T13:31:19.698Z,23.73
2022-08-07T13:34:33.684Z,23.90
2022-08-07T13:37:58.856Z,23.36
2022-08-07T13:41:08.467Z,22.92
2022-08-07T13:43:55.898Z,23.13
2022-08-07T13:46:49.663Z,23.22
2022-08-07T13:50:34.378Z,23.69
2022-08-07T13:52:49.671Z,24.30
2022-08-07T13:55:37.335Z,24.66
2022-08-07T13:58:42.603Z,25.15
2022-08-07T14:02:04.046Z,25.05
2022-08-07T14:04:55.088Z,25.12
2022-08-07T14:08:00.076Z,25.00
2022-08-07T14:11:14.490Z,24.40
2022-08-07T14:14:04.049Z,23.86
2022-08-07T14:16:51.955Z,23.35
2022-08-07T14:20:40.152Z,23.33
2022-08-07T14:22:53.938Z,22.88
2022-08-07T14:25:48.053Z,22.51
2022-08-07T14:28:57.466Z,22.42
2022-08-07T14:31:56.056Z,22.91
2022-08-07T14:34:46.252Z,23.72
2022-08-07T14:40:40.800Z,23.92
2022-08-07T14:43:58.158Z,23.85
2022-08-07T14:46:56.543Z,24.52
2022-08-07T14:49:57.665Z,25.05
2022-08-07T14:52:47.859Z,25.21
2022-08-07T14:55:55.394Z,25.56
2022-08-07T14:58:54.114Z,25.76
2022-08-07T15:01:50.866Z,25.25
2022-08-07T15:07:52.363Z,23.23
2022-08-07T15:13:54.617Z,21.92
2022-08-07T15:16:54.861Z,22.66
2022-08-07T15:23:17.027Z,24.54
2022-08-07T15:26:09.635Z,25.08
2022-08-07T15:30:09.030Z,25.47
2022-08-07T15:32:05.798Z,25.81
2022-08-07T15:34:59.126Z,25.79
2022-08-07T15:38:17.903Z,25.48
2022-08-07T15:41:23.652Z,25.54
2022-08-07T15:44:12.506Z,25.61
2022-08-07T15:51:02.036Z,25.41
2022-08-07T15:53:52.727Z,25.73
2022-08-07T15:56:41.845Z,25.31
2022-08-07T15:59:38.872Z,24.41
2022-08-07T16:02:29.768Z,23.63
2022-08-07T16:05:19.726Z,23.29
2022-08-07T16:08:31.124Z,23.29
2022-08-07T16:12:03.329Z,22.89
2022-08-07T16:15:05.622Z,22.82
2022-08-07T16:18:49.427Z,22.62
2022-08-07T16:22:03.337Z,22.93
2022-08-07T16:24:59.713Z,23.10
2022-08-07T16:29:18.524Z,23.65
2022-08-07T16:31:51.108Z,23.87
2022-08-07T16:34:55.425Z,23.75
2022-08-07T16:38:09.748Z,23.48
2022-08-07T16:41:41.647Z,23.11
2022-08-07T16:45:14.690Z,23.41
2022-08-07T16:49:04.197Z,24.16
2022-08-07T16:52:50.128Z,24.51
2022-08-07T16:55:50.667Z,24.41
2022-08-07T16:59:14.782Z,24.10
2022-08-07T17:02:51.515Z,24.53
2022-08-07T17:06:28.374Z,24.55
2022-08-07T17:10:08.249Z,24.76
2022-08-07T17:12:53.894Z,24.95
2022-08-07T17:15:51.620Z,25.18
2022-08-07T17:18:46.126Z,25.32
2022-08-07T17:21:51.054Z,25.54
2022-08-07T17:24:53.827Z,25.52
2022-08-07T17:28:06.801Z,24.87
2022-08-07T17:31:00.860Z,24.40
2022-08-07T17:34:33.054Z,23.86
2022-08-07T17:38:05.419Z,24.01
2022-08-07T17:40:42.746Z,23.92
2022-08-07T17:44:03.141Z,24.01
2022-08-07T17:47:08.696Z,24.12
2022-08-07T17:50:22.653Z,24.34
2022-08-07T17:54:01.667Z,24.44
2022-08-07T17:57:19.119Z,24.31
2022-08-07T18:00:11.243Z,23.73
2022-08-07T18:03:09.499Z,23.34
2022-08-07T18:06:02.147Z,23.19
2022-08-07T18:09:05.462Z,23.36
2022-08-07T18:12:16.092Z,23.32
2022-08-07T18:15:19.235Z,23.50
2022-08-07T18:18:33.172Z,23.32
2022-08-07T18:21:37.336Z,22.89
2022-08-07T18:24:33.425Z,22.83
2022-08-07T18:27:55.469Z,22.84
2022-08-07T18:31:38.790Z,23.32
2022-08-07T18:35:03.606Z,23.39
2022-08-07T18:38:55.880Z,23.28
2022-08-07T18:41:44.619Z,23.35
2022-08-07T18:45:43.007Z,22.61
2022-08-07T18:49:23.880Z,22.22
2022-08-07T18:52:33.483Z,22.06
2022-08-07T18:55:43.096Z,21.82
2022-08-07T18:58:33.344Z,21.53
2022-08-07T19:02:18.324Z,21.41
2022-08-07T19:05:26.961Z,21.32
2022-08-07T19:08:58.438Z,21.22
2022-08-07T19:12:04.574Z,21.08
2022-08-07T19:16:03.251Z,20.89
2022-08-07T19:18:34.971Z,20.76
2022-08-07T19:21:47.707Z,20.60
2022-08-07T19:24:48.693Z,20.49
2022-08-07T19:30:57.128Z,20.32
2022-08-07T19:31:06.291Z,20.12
2022-08-07T19:33:58.225Z,19.98
2022-08-07T19:36:51.926Z,19.89
2022-08-07T19:39:57.792Z,19.81
2022-08-07T19:42:49.373Z,19.71
2022-08-07T19:46:07.902Z,19.66
2022-08-07T19:48:54.049Z,19.55
2022-08-07T19:51:52.517Z,19.51
2022-08-07T19:54:56.507Z,19.44
2022-08-07T19:58:00.065Z,19.34
2022-08-07T20:00:55.796Z,19.20
2022-08-07T20:03:42.235Z,19.11
2022-08-07T20:06:31.503Z,19.01
2022-08-07T20:10:33.562Z,18.89
2022-08-07T20:12:32.138Z,18.81
2022-08-07T20:15:33.131Z,18.81
2022-08-07T20:18:32.237Z,18.84
2022-08-07T20:21:22.449Z,18.81
2022-08-07T20:24:17.828Z,18.77
2022-08-07T20:27:07.540Z,18.73
2022-08-07T20:30:00.334Z,18.68
2022-08-07T20:32:47.865Z,18.64
2022-08-07T20:35:54.481Z,18.62
2022-08-07T20:39:00.629Z,18.62
2022-08-07T20:41:52.390Z,18.60
2022-08-07T20:44:49.518Z,18.58
2022-08-07T20:47:56.377Z,18.59
2022-08-07T20:50:43.850Z,18.61
2022-08-07T20:54:03.566Z,18.62
2022-08-07T20:56:45.949Z,18.63
2022-08-07T21:00:06.637Z,18.63
2022-08-07T21:02:58.018Z,18.62
2022-08-07T21:06:12.453Z,18.60
2022-08-07T21:09:15.227Z,18.54
2022-08-07T21:12:03.437Z,18.49
2022-08-07T21:14:53.570Z,18.40
2022-08-07T21:18:20.243Z,18.31
2022-08-07T21:20:56.192Z,18.23
2022-08-07T21:24:03.276Z,18.13
2022-08-07T21:27:07.000Z,18.05
2022-08-07T21:30:04.340Z,17.99
2022-08-07T21:33:00.569Z,17.94
2022-08-07T21:36:32.261Z,17.91
2022-08-07T21:39:46.031Z,17.86
2022-08-07T21:42:59.770Z,17.79
2022-08-07T21:46:08.265Z,17.69
2022-08-07T21:49:14.975Z,17.48
2022-08-07T21:52:02.026Z,17.33
2022-08-07T21:54:50.985Z,17.23
2022-08-07T21:57:52.646Z,17.12
2022-08-07T22:00:42.725Z,17.02
2022-08-07T22:03:46.608Z,17.01
2022-08-07T22:06:45.230Z,16.97
2022-08-07T22:09:53.726Z,16.92
2022-08-07T22:13:00.356Z,16.84
2022-08-07T22:16:45.430Z,16.89
2022-08-07T22:19:05.139Z,16.94
2022-08-07T22:22:20.960Z,17.04
2022-08-07T22:25:26.545Z,17.11
2022-08-07T22:28:31.923Z,17.12
2022-08-07T22:31:55.968Z,17.11
2022-08-07T22:34:57.004Z,17.09
2022-08-07T22:38:04.640Z,17.08
2022-08-07T22:41:11.754Z,17.05
2022-08-07T22:44:03.724Z,17.00
2022-08-07T22:47:23.262Z,16.93
2022-08-07T22:50:29.082Z,16.87
2022-08-07T22:54:07.830Z,16.79
2022-08-07T22:57:19.833Z,16.72
2022-08-07T23:00:21.528Z,16.64
2022-08-07T23:03:32.032Z,16.59
2022-08-07T23:06:43.551Z,16.50
2022-08-07T23:10:37.777Z,16.43
2022-08-07T23:13:48.372Z,16.35
2022-08-07T23:16:55.948Z,16.26
2022-08-07T23:20:20.816Z,16.20
2022-08-07T23:24:06.782Z,16.14
2022-08-07T23:27:11.931Z,16.10
2022-08-07T23:30:39.213Z,16.03
2022-08-07T23:34:34.806Z,15.91
2022-08-07T23:37:18.915Z,15.74
2022-08-07T23:40:18.079Z,15.56
2022-08-07T23:43:23.067Z,15.45
2022-08-07T23:46:23.809Z,15.39
2022-08-07T23:49:23.019Z,15.24
2022-08-07T23:53:01.774Z,15.16
2022-08-07T23:55:52.233Z,14.96
